Terminal Aerodrome Forecast
Issued by NWS

Home | Current Version | Previous Version | Text Only | Print | Product List | Glossary On
Versions: 1 2 3 4 5 6 7 8 9 10 11 12
000
FTUS45 KABQ 201700 RRA
TAFROW
TAF
KROW 201752Z 2018/2118 16007KT P6SM FEW070 SCT120
     FM202200 27009KT P6SM VCSH SCT070 BKN150
      TEMPO 2023/2101 28015G25KT -SHRA BKN080
     FM210200 17007KT P6SM BKN120=

USA.gov is the U.S. government's official web portal to all federal, state and local government web resources and services.